Time;durP1;ratioP1;P1;durP2;ratioP2;P2;SDS_P1;SDS_P2;PMS_P1;PMS_P2;Temp;Humidity;BMP_temperature;BMP_pressure;BME280_temperature;BME280_humidity;BME280_pressure;Samples;Min_cycle;Max_cycle;Signal;HPM_P1;HPM_P2
2023/01/31 00:01:36;;;;;;;33.63;16.97;;;;;;;-0.61;100.00;100110.94;4995332;28;20169;-73
2023/01/31 00:04:05;;;;;;;31.83;17.53;;;;;;;-0.52;100.00;100114.16;4991609;28;20504;-76
2023/01/31 00:06:37;;;;;;;31.05;15.15;;;;;;;-0.47;100.00;100121.22;4993022;28;20030;-74
2023/01/31 00:09:05;;;;;;;35.00;18.23;;;;;;;-0.56;100.00;100113.78;5001948;28;20113;-74
2023/01/31 00:11:30;;;;;;;40.43;21.93;;;;;;;-0.50;100.00;100121.88;5011399;28;20033;-73
2023/01/31 00:14:01;;;;;;;42.57;21.67;;;;;;;-1.43;100.00;99969.56;5010868;28;20030;-73
2023/01/31 00:16:26;;;;;;;39.60;22.80;;;;;;;-0.51;100.00;100121.00;5010838;28;20564;-73
2023/01/31 00:18:52;;;;;;;35.23;18.80;;;;;;;-0.44;100.00;100116.38;5011055;28;20026;-74
2023/01/31 00:21:21;;;;;;;37.30;19.47;;;;;;;-0.38;100.00;100094.88;5010083;28;20036;-74
2023/01/31 00:23:48;;;;;;;37.22;17.50;;;;;;;-0.29;100.00;100089.63;5011404;28;20468;-74
2023/01/31 00:26:15;;;;;;;37.10;18.53;;;;;;;-0.20;100.00;100102.09;5010859;28;20040;-71
2023/01/31 00:28:42;;;;;;;34.83;18.73;;;;;;;-0.23;100.00;100096.81;5010942;28;20057;-73
2023/01/31 00:31:08;;;;;;;38.30;17.93;;;;;;;-0.23;100.00;100100.22;4999152;28;20435;-72
2023/01/31 00:33:35;;;;;;;36.40;18.07;;;;;;;-0.22;100.00;100111.25;4994619;28;20018;-72
2023/01/31 00:36:05;;;;;;;34.37;18.27;;;;;;;-0.13;100.00;100105.97;4990418;28;20023;-70
2023/01/31 00:38:31;;;;;;;35.60;18.23;;;;;;;-0.13;100.00;100104.31;4992649;28;20034;-74
2023/01/31 00:40:57;;;;;;;34.73;18.43;;;;;;;-0.17;100.00;100104.88;4992727;28;20028;-72
2023/01/31 00:43:22;;;;;;;33.87;17.97;;;;;;;-0.14;100.00;100109.28;4991572;28;20069;-73
2023/01/31 00:45:48;;;;;;;30.73;17.83;;;;;;;-0.23;100.00;100087.53;4989307;28;20039;-73
2023/01/31 00:48:13;;;;;;;33.53;16.80;;;;;;;-0.22;100.00;100086.75;4990279;28;20026;-70
2023/01/31 00:50:39;;;;;;;34.90;18.97;;;;;;;-0.26;100.00;100089.84;4998599;28;20053;-70
2023/01/31 00:53:05;;;;;;;31.37;17.80;;;;;;;-0.26;100.00;100097.47;5010167;28;20022;-71
2023/01/31 00:55:30;;;;;;;33.03;18.10;;;;;;;-0.30;100.00;100095.44;5011080;28;20068;-71
2023/01/31 00:57:56;;;;;;;33.90;17.97;;;;;;;-0.39;100.00;100097.31;5010984;28;20081;-73
2023/01/31 01:00:21;;;;;;;34.10;17.93;;;;;;;-0.78;100.00;100058.97;5011080;28;20407;-74
2023/01/31 01:02:47;;;;;;;35.10;17.97;;;;;;;-0.77;100.00;100082.63;5010812;28;20534;-72
2023/01/31 01:05:12;;;;;;;34.47;18.63;;;;;;;-1.07;100.00;100037.38;5010733;28;20037;-73
2023/01/31 01:07:38;;;;;;;34.30;17.37;;;;;;;-1.08;100.00;100063.47;5005445;28;20076;-74
2023/01/31 01:10:05;;;;;;;36.27;19.57;;;;;;;-1.11;100.00;100070.81;5006101;28;20030;-75
2023/01/31 01:12:30;;;;;;;37.63;19.10;;;;;;;-1.09;100.00;100065.88;5010628;28;20030;-73
2023/01/31 01:14:56;;;;;;;38.83;19.17;;;;;;;-1.02;100.00;100070.66;5010777;28;20087;-73
2023/01/31 01:17:21;;;;;;;36.43;19.83;;;;;;;-0.95;100.00;100062.75;5010671;28;20090;-74
2023/01/31 01:19:47;;;;;;;37.03;20.40;;;;;;;-0.95;100.00;100062.75;5010451;28;20049;-73
2023/01/31 01:22:14;;;;;;;34.40;19.30;;;;;;;-0.96;100.00;100050.81;5010802;28;20037;-73
2023/01/31 01:24:41;;;;;;;36.63;18.83;;;;;;;-1.08;100.00;100030.53;5010501;28;20026;-73
2023/01/31 01:27:07;;;;;;;39.90;20.13;;;;;;;-0.86;100.00;100060.91;5010552;28;20500;-71
2023/01/31 01:29:33;;;;;;;36.17;19.17;;;;;;;-0.85;100.00;100060.16;5010498;28;20036;-73
2023/01/31 01:31:59;;;;;;;35.70;17.60;;;;;;;-0.82;100.00;100064.56;5010758;28;20030;-73
2023/01/31 01:34:25;;;;;;;39.60;19.57;;;;;;;-0.89;100.00;100037.84;5010696;28;20407;-74
2023/01/31 01:36:50;;;;;;;35.87;19.53;;;;;;;-1.08;100.00;100009.41;5010319;28;20034;-73
2023/01/31 01:39:16;;;;;;;36.90;17.80;;;;;;;-0.82;100.00;100065.44;5010409;28;20029;-73
2023/01/31 01:41:42;;;;;;;36.13;18.63;;;;;;;-0.90;100.00;100058.91;5010853;28;20030;-73
2023/01/31 01:45:02;;;;;;;36.03;19.13;;;;;;;-0.89;100.00;100067.41;5010798;28;20037;-73
2023/01/31 01:47:38;;;;;;;34.38;17.88;;;;;;;-1.01;100.00;100067.34;4969020;28;20035;-74
2023/01/31 01:50:12;;;;;;;34.77;17.97;;;;;;;-1.06;100.00;100063.56;4969122;28;20122;-72
2023/01/31 01:52:46;;;;;;;37.20;19.63;;;;;;;-1.05;100.00;100068.75;4968869;28;20205;-72
2023/01/31 01:55:29;;;;;;;32.40;17.97;;;;;;;-1.05;100.00;100070.41;4968922;28;20078;-73
2023/01/31 01:58:03;;;;;;;34.90;18.43;;;;;;;-1.07;100.00;100060.16;4968892;28;20070;-74
2023/01/31 02:00:30;;;;;;;36.10;20.17;;;;;;;-1.12;100.00;100058.03;4968911;28;20041;-73
2023/01/31 02:02:58;;;;;;;36.40;19.03;;;;;;;-1.41;100.00;100018.69;4972735;28;20054;-73
2023/01/31 02:05:31;;;;;;;38.72;19.75;;;;;;;-1.28;100.00;100048.38;4972608;28;20066;-70
2023/01/31 02:07:59;;;;;;;41.07;19.83;;;;;;;-1.25;100.00;100066.34;4972718;28;20166;-75
2023/01/31 02:10:38;;;;;;;38.33;21.03;;;;;;;-1.31;100.00;100056.63;4972571;28;20147;-73
2023/01/31 02:13:04;;;;;;;31.65;17.27;;;;;;;-1.24;100.00;100065.59;4972480;28;20046;-74
2023/01/31 02:15:30;;;;;;;39.23;19.97;;;;;;;-1.21;100.00;100058.22;4972366;28;20545;-71
2023/01/31 02:17:56;;;;;;;34.80;18.13;;;;;;;-1.24;100.00;100051.25;4972215;28;20114;-71
2023/01/31 02:20:34;;;;;;;38.47;20.77;;;;;;;-1.23;100.00;100074.97;4974714;28;20166;-73
2023/01/31 02:23:02;;;;;;;34.70;17.37;;;;;;;-1.18;100.00;100054.28;5013729;28;20100;-73
2023/01/31 02:25:48;;;;;;;36.87;19.53;;;;;;;-1.20;100.00;100057.44;5013930;28;20076;-76
2023/01/31 02:28:50;;;;;;;36.20;19.30;;;;;;;-1.18;100.00;100054.28;5013696;28;20547;-73
2023/01/31 02:31:38;;;;;;;37.30;18.60;;;;;;;-1.12;100.00;100061.47;5013410;28;20132;-70
2023/01/31 02:34:10;;;;;;;35.80;19.00;;;;;;;-1.12;100.00;100069.06;5013972;28;20036;-73
2023/01/31 02:37:00;;;;;;;35.00;18.33;;;;;;;-1.08;100.00;100075.25;5013840;28;20391;-74
2023/01/31 02:39:29;;;;;;;;;;;;;;;-1.09;100.00;100064.22;5013974;28;20030;-73
2023/01/31 02:42:28;;;;;;;37.30;19.05;;;;;;;-1.09;100.00;100063.34;5013439;28;19905;-74
2023/01/31 02:44:59;;;;;;;33.10;17.90;;;;;;;-1.02;100.00;100076.59;5013474;28;20130;-74
2023/01/31 02:47:49;;;;;;;35.93;19.37;;;;;;;-0.95;100.00;100077.06;5013191;28;20431;-75
2023/01/31 02:50:25;;;;;;;33.63;18.60;;;;;;;-0.93;100.00;100075.53;5013187;28;20410;-73
2023/01/31 02:53:08;;;;;;;36.93;20.90;;;;;;;-0.92;100.00;100064.63;5013494;28;20029;-74
2023/01/31 02:58:27;;;;;;;36.47;19.90;;;;;;;-0.76;100.00;100072.63;5013414;28;20045;-74
2023/01/31 03:00:57;;;;;;;31.02;18.60;;;;;;;-0.77;100.00;100053.13;5013180;28;20451;-74
2023/01/31 03:03:26;;;;;;;;;;;;;;;-0.75;100.00;100059.16;5013638;28;20455;-71
2023/01/31 03:06:11;;;;;;;;;;;;;;;-0.73;100.00;100062.72;5013642;28;19913;-73
2023/01/31 03:08:39;;;;;;;36.03;19.50;;;;;;;-0.76;100.00;100049.81;5013257;28;20028;-74
2023/01/31 03:11:07;;;;;;;39.23;18.60;;;;;;;-0.89;100.00;100045.47;5011662;28;20081;-72
2023/01/31 03:13:57;;;;;;;37.20;20.03;;;;;;;-0.84;100.00;100055.97;5013017;28;20022;-74
2023/01/31 03:19:44;;;;;;;38.20;21.17;;;;;;;-0.97;100.00;100051.63;4971221;28;20042;-74
2023/01/31 03:22:17;;;;;;;37.20;20.93;;;;;;;-1.01;100.00;100045.44;4952060;29;20043;-73
2023/01/31 03:24:48;;;;;;;41.57;22.30;;;;;;;-0.95;100.00;100049.19;4952055;29;20120;-73
2023/01/31 03:27:15;;;;;;;40.13;20.77;;;;;;;-0.98;100.00;100027.03;4951848;29;20090;-72
2023/01/31 03:29:42;;;;;;;40.13;21.27;;;;;;;-0.79;100.00;100051.25;4951958;29;20146;-72
2023/01/31 03:32:26;;;;;;;36.37;20.53;;;;;;;-0.75;100.00;100050.69;4951890;29;20089;-71
2023/01/31 03:34:53;;;;;;;34.57;19.47;;;;;;;-0.75;100.00;100056.63;4951613;29;20023;-72
2023/01/31 03:37:42;;;;;;;38.87;21.90;;;;;;;-0.72;100.00;100045.88;4951780;29;20035;-72
2023/01/31 03:40:13;;;;;;;39.88;21.55;;;;;;;-0.72;100.00;100040.81;4951527;29;20557;-74
2023/01/31 03:42:48;;;;;;;40.53;22.37;;;;;;;-0.70;100.00;100046.84;4952242;28;20039;-70
2023/01/31 03:45:31;;;;;;;34.90;20.53;;;;;;;-0.73;100.00;100042.44;4951568;29;20090;-72
2023/01/31 03:47:59;;;;;;;36.80;20.93;;;;;;;-0.74;100.00;100037.25;4951414;29;20718;-70
2023/01/31 03:50:34;;;;;;;39.77;22.00;;;;;;;-0.82;100.00;100050.22;4966952;28;20047;-70
2023/01/31 03:53:18;;;;;;;38.90;21.50;;;;;;;-0.83;100.00;100053.53;4970583;28;20026;-73
2023/01/31 03:56:00;;;;;;;36.93;20.80;;;;;;;-0.90;100.00;100041.16;4982960;28;20046;-72
2023/01/31 03:58:32;;;;;;;33.57;19.93;;;;;;;-0.92;100.00;100042.72;5011980;28;20476;-72
2023/01/31 04:01:01;;;;;;;40.47;21.00;;;;;;;-0.88;100.00;100041.28;5009825;28;20481;-73
2023/01/31 04:03:41;;;;;;;43.13;22.05;;;;;;;-0.99;100.00;100021.06;5011863;28;20484;-73
2023/01/31 04:06:08;;;;;;;44.03;22.47;;;;;;;-0.96;100.00;100030.56;5011985;28;20038;-73
2023/01/31 04:08:34;;;;;;;51.47;24.37;;;;;;;-0.92;100.00;100039.28;5012009;28;20124;-74
2023/01/31 04:11:04;;;;;;;40.30;21.87;;;;;;;-0.95;100.00;100036.53;5011650;28;20061;-69
2023/01/31 04:13:29;;;;;;;37.10;18.97;;;;;;;-1.03;100.00;100020.75;5011773;28;20029;-70
2023/01/31 04:15:55;;;;;;;42.53;21.30;;;;;;;-0.88;100.00;100037.09;5011867;28;20030;-73
2023/01/31 04:18:21;;;;;;;53.70;26.47;;;;;;;-0.84;100.00;100035.69;5011806;28;20104;-72
2023/01/31 04:20:46;;;;;;;46.50;26.00;;;;;;;-0.82;100.00;100045.16;5011567;28;20455;-70
2023/01/31 04:23:11;;;;;;;42.77;23.13;;;;;;;-0.82;100.00;100045.16;5010093;28;20052;-70
2023/01/31 04:25:37;;;;;;;41.40;23.90;;;;;;;-0.93;100.00;100025.75;5011407;28;20026;-72
2023/01/31 04:28:03;;;;;;;37.60;20.67;;;;;;;-0.85;100.00;100041.50;5011653;28;20045;-75
2023/01/31 04:30:28;;;;;;;39.47;20.97;;;;;;;-0.80;100.00;100050.34;5011450;28;20034;-71
2023/01/31 04:32:54;;;;;;;36.90;19.53;;;;;;;-0.74;100.00;100052.47;5011725;28;20495;-74
2023/01/31 04:35:19;;;;;;;36.53;20.63;;;;;;;-0.72;100.00;100053.47;5011855;28;20415;-73
2023/01/31 04:37:45;;;;;;;34.50;20.50;;;;;;;-0.68;100.00;100047.84;5011540;28;20392;-76
2023/01/31 04:40:13;;;;;;;37.10;20.40;;;;;;;-0.68;100.00;100053.81;5028247;28;20045;-73
2023/01/31 04:42:38;;;;;;;34.97;19.40;;;;;;;-0.64;100.00;100056.59;5028282;28;20726;-70
2023/01/31 04:45:04;;;;;;;39.03;21.00;;;;;;;-0.57;100.00;100062.22;5028600;28;20076;-70
2023/01/31 04:47:30;;;;;;;36.07;19.80;;;;;;;-0.61;100.00;100052.63;5028241;28;20068;-70
2023/01/31 04:49:55;;;;;;;40.77;19.87;;;;;;;-0.60;100.00;100056.91;5028253;28;20037;-72
2023/01/31 04:52:23;;;;;;;37.70;19.70;;;;;;;-0.51;100.00;100060.13;5028424;28;20053;-75
2023/01/31 04:54:48;;;;;;;35.33;19.07;;;;;;;-0.47;100.00;100065.41;5011631;28;20045;-73
2023/01/31 04:57:14;;;;;;;36.70;20.03;;;;;;;-0.48;100.00;100067.09;4979121;28;20094;-70
2023/01/31 04:59:39;;;;;;;35.20;19.47;;;;;;;-0.49;100.00;100060.25;5025519;28;20049;-71
2023/01/31 05:02:05;;;;;;;37.10;19.83;;;;;;;-0.42;100.00;100071.75;5018364;28;20028;-72
2023/01/31 05:04:30;;;;;;;37.00;21.10;;;;;;;-0.36;100.00;100055.31;5018466;28;20037;-74
2023/01/31 05:06:55;;;;;;;38.43;19.77;;;;;;;-0.38;100.00;100055.97;5028270;28;20041;-76
2023/01/31 05:09:21;;;;;;;37.20;19.97;;;;;;;-0.45;100.00;100046.16;5028332;28;20037;-71
2023/01/31 05:11:48;;;;;;;38.97;21.63;;;;;;;-0.39;100.00;100061.81;5014988;28;20052;-71
2023/01/31 05:14:13;;;;;;;36.90;19.90;;;;;;;-0.33;100.00;100068.22;5003608;28;20034;-71
2023/01/31 05:16:39;;;;;;;35.27;18.60;;;;;;;-0.21;100.00;100075.84;5000399;28;20377;-71
2023/01/31 05:19:05;;;;;;;34.13;20.20;;;;;;;-0.15;100.00;100066.91;5001608;28;20068;-72
2023/01/31 05:21:53;;;;;;;37.43;19.37;;;;;;;-0.05;100.00;100065.19;4999789;28;20567;-70
2023/01/31 05:24:16;;;;;;;34.33;19.30;;;;;;;-0.01;100.00;100062.06;4996190;28;20038;-72
2023/01/31 05:26:41;;;;;;;36.67;20.37;;;;;;;0.05;100.00;100066.72;4991547;28;20037;-69
2023/01/31 05:29:07;;;;;;;33.70;18.60;;;;;;;0.01;100.00;100063.84;4991238;28;20077;-69
2023/01/31 05:31:32;;;;;;;33.37;18.70;;;;;;;0.08;100.00;100078.75;4991122;28;20523;-72
2023/01/31 05:33:58;;;;;;;33.03;19.27;;;;;;;0.07;100.00;100082.94;4995651;28;20126;-69
2023/01/31 05:36:24;;;;;;;32.57;19.20;;;;;;;0.03;100.00;100090.22;5001250;28;20101;-70
2023/01/31 05:38:49;;;;;;;38.63;21.00;;;;;;;-0.22;100.00;100086.75;5005463;28;20041;-72
2023/01/31 05:41:14;;;;;;;41.37;22.50;;;;;;;-0.21;100.00;100087.66;5004372;28;20038;-74
2023/01/31 05:43:40;;;;;;;39.63;22.47;;;;;;;-0.22;100.00;100089.31;5006413;28;20069;-72
2023/01/31 05:46:06;;;;;;;38.93;22.03;;;;;;;-0.13;100.00;100089.09;5011812;28;20399;-72
2023/01/31 05:48:31;;;;;;;37.40;21.87;;;;;;;-0.06;100.00;100103.13;5009145;28;20033;-73
2023/01/31 05:50:56;;;;;;;38.77;22.07;;;;;;;-0.01;100.00;100099.28;5014636;28;20029;-74
2023/01/31 05:53:22;;;;;;;38.23;20.20;;;;;;;-0.16;100.00;100091.41;5005109;28;20125;-73
2023/01/31 05:55:48;;;;;;;39.97;21.23;;;;;;;-0.24;100.00;100068.00;4995278;28;20035;-72
2023/01/31 05:58:14;;;;;;;37.47;21.00;;;;;;;-0.13;100.00;100080.63;5012267;28;20033;-75
2023/01/31 06:00:40;;;;;;;38.43;21.63;;;;;;;-0.14;100.00;100105.09;5014082;28;20029;-78
2023/01/31 06:03:06;;;;;;;40.70;23.10;;;;;;;-0.46;100.00;100068.09;5014118;28;20487;-74
2023/01/31 06:05:31;;;;;;;43.03;22.37;;;;;;;-0.20;100.00;100110.59;4999088;28;20081;-72
2023/01/31 06:07:57;;;;;;;39.67;21.67;;;;;;;-0.21;100.00;100118.13;4993994;28;20038;-70
2023/01/31 06:10:22;;;;;;;43.03;23.23;;;;;;;-0.19;100.00;100129.22;4994478;28;20030;-72
2023/01/31 06:12:48;;;;;;;38.90;21.50;;;;;;;-0.25;100.00;100118.63;4993541;28;20081;-74
2023/01/31 06:15:13;;;;;;;37.03;20.40;;;;;;;-0.33;100.00;100111.34;5008435;28;20033;-70
2023/01/31 06:17:39;;;;;;;39.93;21.73;;;;;;;-0.56;100.00;100096.94;4993365;28;20037;-74
2023/01/31 06:20:04;;;;;;;35.83;19.87;;;;;;;-0.58;100.00;100116.22;4993816;28;20033;-71
2023/01/31 06:22:30;;;;;;;40.33;21.87;;;;;;;-0.43;100.00;100129.19;4993404;28;20027;-72
2023/01/31 06:24:55;;;;;;;39.70;20.77;;;;;;;-0.50;100.00;100120.22;5023529;28;20050;-72
2023/01/31 06:27:21;;;;;;;39.60;20.90;;;;;;;-0.56;100.00;100129.91;4995560;28;20057;-68
2023/01/31 06:29:46;;;;;;;39.70;20.53;;;;;;;-0.51;100.00;100132.81;4993509;28;20026;-72
2023/01/31 06:32:12;;;;;;;37.53;20.30;;;;;;;-0.47;100.00;100138.97;4993391;28;20100;-71
2023/01/31 06:34:37;;;;;;;36.03;20.13;;;;;;;-0.36;100.00;100139.03;4993180;28;20508;-72
2023/01/31 06:37:02;;;;;;;34.40;19.80;;;;;;;-0.30;100.00;100143.66;4993432;28;20082;-69
2023/01/31 06:39:28;;;;;;;36.17;19.27;;;;;;;-0.52;100.00;100104.00;4993068;28;20465;-70
2023/01/31 06:41:53;;;;;;;35.23;19.83;;;;;;;-0.58;100.00;100095.94;4993068;28;20034;-72
2023/01/31 06:44:19;;;;;;;37.87;22.67;;;;;;;-0.26;100.00;100155.81;5008371;28;20030;-70
2023/01/31 06:46:44;;;;;;;37.80;19.47;;;;;;;-0.56;100.00;100118.88;5029234;28;20546;-72
2023/01/31 06:49:09;;;;;;;35.13;18.70;;;;;;;-0.42;100.00;100140.22;5029770;28;20029;-72
2023/01/31 06:51:35;;;;;;;34.87;18.40;;;;;;;-0.32;100.00;100155.34;5029629;28;20103;-71
2023/01/31 06:54:01;;;;;;;32.43;19.70;;;;;;;-0.27;100.00;100163.31;5029584;28;20099;-73
2023/01/31 06:56:26;;;;;;;32.47;19.20;;;;;;;-0.28;100.00;100159.00;5029659;28;20045;-72
2023/01/31 06:58:51;;;;;;;37.80;19.60;;;;;;;-0.21;100.00;100177.34;5029751;28;20028;-74
2023/01/31 07:01:17;;;;;;;37.60;19.20;;;;;;;-0.26;100.00;100163.44;5031041;28;20037;-70
2023/01/31 07:03:43;;;;;;;44.00;22.80;;;;;;;-0.31;100.00;100164.75;4990201;28;20038;-70
2023/01/31 07:06:09;;;;;;;44.47;22.57;;;;;;;-0.22;100.00;100175.56;4990082;28;20042;-72
2023/01/31 07:08:35;;;;;;;35.47;19.23;;;;;;;-0.22;100.00;100162.88;4989716;28;20031;-71
2023/01/31 07:11:01;;;;;;;37.17;19.20;;;;;;;-0.22;100.00;100180.63;4990290;28;20113;-73
2023/01/31 07:13:27;;;;;;;38.80;18.33;;;;;;;-0.26;100.00;100168.50;4989950;28;20042;-74
2023/01/31 07:15:53;;;;;;;36.33;20.40;;;;;;;-0.41;100.00;100152.09;4990156;28;20041;-70
2023/01/31 07:18:19;;;;;;;36.90;18.73;;;;;;;-0.25;100.00;100182.97;4961118;28;20039;-73
2023/01/31 07:20:45;;;;;;;41.17;23.97;;;;;;;-0.39;100.00;100155.66;4951210;28;20046;-72
2023/01/31 07:23:11;;;;;;;37.83;19.83;;;;;;;-0.25;100.00;100190.56;4950960;28;20043;-72
2023/01/31 07:25:36;;;;;;;36.97;20.37;;;;;;;-0.18;100.00;100202.91;4951123;28;20474;-72
2023/01/31 07:28:03;;;;;;;41.27;20.80;;;;;;;-0.16;100.00;100192.91;4950924;28;20058;-73
2023/01/31 07:30:28;;;;;;;40.20;23.47;;;;;;;-0.20;100.00;100196.88;4951228;28;20165;-72
2023/01/31 07:32:54;;;;;;;38.60;23.43;;;;;;;-0.21;100.00;100187.47;4953900;28;20110;-74
2023/01/31 07:35:20;;;;;;;33.97;19.43;;;;;;;-0.26;100.00;100183.72;4981936;28;20042;-74
2023/01/31 07:37:46;;;;;;;36.87;20.30;;;;;;;-0.25;100.00;100184.59;4991612;28;20034;-73
2023/01/31 07:40:13;;;;;;;35.47;19.83;;;;;;;-0.16;100.00;100197.97;5007725;28;20029;-70
2023/01/31 07:42:40;;;;;;;34.60;19.93;;;;;;;-0.02;100.00;100206.63;4991946;28;20519;-73
2023/01/31 07:45:07;;;;;;;36.70;20.40;;;;;;;0.01;100.00;100203.44;4992074;28;20122;-74
2023/01/31 07:47:32;;;;;;;37.83;19.70;;;;;;;0.05;100.00;100188.56;4991840;28;20473;-73
2023/01/31 07:49:58;;;;;;;40.00;20.10;;;;;;;0.07;100.00;100178.50;4991884;28;20018;-73
2023/01/31 07:52:23;;;;;;;37.63;20.50;;;;;;;0.10;100.00;100179.63;5022019;28;20109;-73
2023/01/31 07:54:49;;;;;;;35.27;20.00;;;;;;;0.18;100.00;100195.41;4991261;28;20030;-73
2023/01/31 07:57:16;;;;;;;36.87;20.57;;;;;;;-0.03;100.00;100149.88;5021877;28;20069;-73
2023/01/31 07:59:43;;;;;;;35.63;19.53;;;;;;;0.36;100.00;100210.22;4998549;28;20041;-74
2023/01/31 08:04:56;;;;;;;31.63;18.20;;;;;;;0.39;100.00;100183.41;4991567;28;20049;-74
2023/01/31 08:07:21;;;;;;;28.30;15.52;;;;;;;0.71;100.00;100216.97;5002246;28;20734;-70
2023/01/31 08:09:49;;;;;;;27.50;15.48;;;;;;;0.73;100.00;100211.25;5002015;28;20038;-70
2023/01/31 08:12:15;;;;;;;27.37;16.03;;;;;;;0.56;100.00;100158.34;5008403;28;20397;-72
2023/01/31 08:14:42;;;;;;;28.40;16.73;;;;;;;0.91;100.00;100198.06;5010869;28;20033;-71
2023/01/31 08:17:08;;;;;;;30.30;15.03;;;;;;;0.93;100.00;100194.88;5026264;28;20530;-77
2023/01/31 08:19:34;;;;;;;27.13;14.48;;;;;;;1.02;100.00;100214.09;5011802;28;20041;-74
2023/01/31 08:22:00;;;;;;;34.22;16.65;;;;;;;1.11;100.00;100213.09;5011919;28;20403;-74
2023/01/31 08:24:25;;;;;;;32.40;17.50;;;;;;;1.22;100.00;100220.59;5011985;28;20091;-76
2023/01/31 08:26:51;;;;;;;33.47;16.48;;;;;;;1.17;100.00;100212.63;5011597;28;20046;-70
2023/01/31 08:29:17;;;;;;;28.95;14.45;;;;;;;1.13;100.00;100215.72;5011589;28;20056;-73
2023/01/31 08:31:42;;;;;;;28.02;14.32;;;;;;;1.12;100.00;100214.88;5010605;28;20057;-77
2023/01/31 08:34:08;;;;;;;27.52;15.20;;;;;;;1.11;100.00;100220.72;5011378;28;20044;-70
2023/01/31 08:36:34;;;;;;;29.73;15.55;;;;;;;1.19;100.00;100220.38;5011723;28;20034;-74
2023/01/31 08:39:00;;;;;;;26.15;15.50;;;;;;;1.17;100.00;100217.72;5011666;28;20460;-75
2023/01/31 08:41:27;;;;;;;32.05;14.50;;;;;;;1.27;100.00;100222.69;5011485;28;20034;-74
2023/01/31 08:43:54;;;;;;;27.65;15.45;;;;;;;1.33;100.00;100214.59;5011416;28;20104;-73
2023/01/31 08:46:21;;;;;;;30.02;16.67;;;;;;;1.39;100.00;100212.47;5011369;28;20101;-73
2023/01/31 08:48:46;;;;;;;35.83;19.63;;;;;;;1.45;100.00;100209.47;5026478;28;20084;-70
2023/01/31 08:51:13;;;;;;;36.05;21.05;;;;;;;1.55;100.00;100216.09;5011429;28;20046;-70
2023/01/31 08:53:40;;;;;;;40.95;23.13;;;;;;;1.63;100.00;100225.13;5011494;28;20036;-72
2023/01/31 08:56:07;;;;;;;33.00;18.85;;;;;;;1.68;100.00;100221.22;5011274;28;20026;-71
2023/01/31 08:58:37;;;;;;;36.60;18.73;;;;;;;1.75;100.00;100233.59;5011352;28;20113;-72
2023/01/31 09:01:06;;;;;;;;;;;;;;;1.82;100.00;100232.38;5011752;28;20026;-74
2023/01/31 09:03:32;;;;;;;;;;;;;;;1.90;100.00;100225.25;5011819;28;20008;-73
2023/01/31 09:06:02;;;;;;;28.42;15.63;;;;;;;1.98;100.00;100225.75;5010863;28;20451;-73
2023/01/31 09:08:28;;;;;;;27.52;14.35;;;;;;;1.80;100.00;100188.09;5011191;28;20030;-71
2023/01/31 09:10:57;;;;;;;20.88;11.60;;;;;;;2.07;100.00;100226.38;5010928;28;20021;-73
2023/01/31 09:13:23;;;;;;;20.33;11.38;;;;;;;2.09;100.00;100215.53;5011091;28;20030;-72
2023/01/31 09:16:06;;;;;;;21.25;11.82;;;;;;;2.14;100.00;100220.03;5024999;28;20060;-76
2023/01/31 09:18:34;;;;;;;20.00;10.68;;;;;;;2.35;100.00;100226.53;5010998;28;20077;-73
2023/01/31 09:21:12;;;;;;;20.83;10.52;;;;;;;2.36;100.00;100222.34;5010955;28;20030;-70
2023/01/31 09:23:38;;;;;;;21.38;10.10;;;;;;;2.14;100.00;100174.19;5011001;28;20037;-77
2023/01/31 09:26:03;;;;;;;21.00;11.15;;;;;;;2.46;100.00;100221.28;5010863;28;20033;-74
2023/01/31 09:28:29;;;;;;;20.65;10.23;;;;;;;2.42;100.00;100226.16;5010851;28;20116;-72
2023/01/31 09:30:55;;;;;;;18.73;12.10;;;;;;;2.54;100.00;100222.63;5010965;28;20049;-76
2023/01/31 09:33:40;;;;;;;21.25;10.43;;;;;;;2.58;100.00;100211.88;5027951;28;20096;-70
2023/01/31 09:36:09;;;;;;;18.40;10.55;;;;;;;2.64;100.00;100219.94;5027789;28;20034;-70
2023/01/31 09:38:35;;;;;;;22.38;10.23;;;;;;;2.58;100.00;100214.44;5027793;28;20555;-69
2023/01/31 09:41:13;;;;;;;20.27;10.32;;;;;;;2.45;100.00;100171.97;5027941;28;20091;-72
2023/01/31 09:43:42;;;;;;;18.90;10.52;;;;;;;2.74;100.00;100204.44;5027960;28;20049;-75
2023/01/31 09:46:15;;;;;;;20.58;10.82;;;;;;;2.71;100.00;100204.22;5027864;28;20034;-71
2023/01/31 09:48:45;;;;;;;19.35;10.52;;;;;;;2.79;100.00;100203.84;5027858;28;20080;-71
2023/01/31 09:51:12;;;;;;;18.58;10.45;;;;;;;2.58;100.00;100163.47;5027819;28;20033;-75
2023/01/31 09:53:40;;;;;;;22.70;11.20;;;;;;;2.87;100.00;100202.66;5027935;28;20436;-71
2023/01/31 09:56:08;;;;;;;18.20;10.05;;;;;;;2.93;100.00;100197.94;5011293;28;20056;-74
2023/01/31 09:58:58;;;;;;;20.38;10.40;;;;;;;2.95;100.00;100180.19;5027780;28;20051;-75
2023/01/31 10:01:51;;;;;;;17.70;9.32;;;;;;;3.11;100.00;100188.00;5027831;28;20052;-74
2023/01/31 10:04:48;;;;;;;16.40;8.88;;;;;;;3.17;100.00;100184.97;5021787;28;20045;-73
2023/01/31 10:07:28;;;;;;;17.50;8.73;;;;;;;3.01;100.00;100167.81;5010437;28;20037;-74
2023/01/31 10:10:09;;;;;;;19.15;10.32;;;;;;;3.22;100.00;100176.78;5010429;28;20152;-75
2023/01/31 10:13:04;;;;;;;16.85;9.23;;;;;;;3.27;100.00;100184.75;5010542;28;20030;-75
2023/01/31 10:15:45;;;;;;;17.65;9.68;;;;;;;3.26;100.00;100177.00;4949555;29;20043;-72
2023/01/31 10:18:21;;;;;;;15.48;8.93;;;;;;;3.05;100.00;100137.50;4949766;29;20039;-74
2023/01/31 10:20:53;;;;;;;19.08;10.00;;;;;;;3.37;100.00;100187.06;4949737;29;20074;-71
2023/01/31 10:23:32;;;;;;;17.67;8.80;;;;;;;3.50;100.00;100187.81;4952717;29;20114;-71
2023/01/31 10:26:00;;;;;;;14.90;8.27;;;;;;;3.23;100.00;100140.28;4953038;29;20109;-74
2023/01/31 10:28:46;;;;;;;15.13;7.93;;;;;;;3.48;100.00;100184.31;4953232;29;20146;-73
2023/01/31 10:31:34;;;;;;;13.88;7.97;;;;;;;3.48;100.00;100182.63;4953075;29;20039;-77
2023/01/31 10:34:15;;;;;;;14.15;8.55;;;;;;;3.61;100.00;100184.22;4858813;29;20669;-71
2023/01/31 10:36:52;;;;;;;12.93;7.63;;;;;;;3.69;100.00;100175.38;4858824;29;20045;-75
2023/01/31 10:39:30;;;;;;;16.02;8.30;;;;;;;3.92;100.00;100167.31;4858608;29;20105;-74
2023/01/31 10:42:14;;;;;;;16.27;8.20;;;;;;;4.11;100.00;100169.25;4858761;29;20044;-71
2023/01/31 10:45:00;;;;;;;14.60;8.25;;;;;;;4.14;100.00;100167.75;4858422;29;20509;-72
2023/01/31 10:47:32;;;;;;;16.38;8.55;;;;;;;4.19;100.00;100163.78;4858618;29;20044;-72
2023/01/31 10:49:57;;;;;;;14.32;7.85;;;;;;;4.31;100.00;100158.53;4863456;29;20048;-75
2023/01/31 10:52:42;;;;;;;14.55;8.63;;;;;;;4.33;100.00;100151.81;4899779;29;20039;-74
2023/01/31 10:55:32;;;;;;;14.82;6.82;;;;;;;4.29;100.00;100154.13;4909183;29;20420;-74
2023/01/31 10:57:58;;;;;;;14.57;7.47;;;;;;;4.24;100.00;100160.63;4925282;29;20040;-76
2023/01/31 11:00:28;;;;;;;14.27;7.15;;;;;;;4.41;100.00;100143.69;4924074;29;20043;-73
2023/01/31 11:02:53;;;;;;;;;;;;;;;4.64;99.90;100145.84;4924811;29;20036;-73
2023/01/31 11:05:22;;;;;;;14.63;5.80;;;;;;;4.97;100.00;100145.06;4924348;29;19970;-71
2023/01/31 11:07:49;;;;;;;9.95;6.13;;;;;;;5.13;100.00;100139.09;4932168;29;20039;-70
2023/01/31 11:10:28;;;;;;;7.20;4.55;;;;;;;5.11;97.33;100135.56;4942948;28;20412;-73
2023/01/31 11:13:03;;;;;;;9.70;5.70;;;;;;;4.96;97.23;100139.06;4992738;28;20031;-69
2023/01/31 11:15:37;;;;;;;10.75;4.15;;;;;;;4.82;96.22;100122.97;4992633;28;20018;-71
2023/01/31 11:18:04;;;;;;;6.80;3.70;;;;;;;4.90;nan;100125.94;4992288;28;20029;-71
2023/01/31 11:20:33;;;;;;;8.32;3.75;;;;;;;5.13;95.26;100149.31;4992548;28;20119;-70
2023/01/31 11:23:01;;;;;;;6.18;3.75;;;;;;;5.04;94.43;100136.06;5010621;28;20037;-72
2023/01/31 11:25:29;;;;;;;8.13;4.35;;;;;;;5.04;95.22;100136.06;4998992;28;20030;-72
2023/01/31 11:28:02;;;;;;;6.05;3.88;;;;;;;4.98;97.34;100140.00;4992226;28;20147;-71